Map

Track Data

SID SEASON NUMBER BASIN SUBBASIN NAME ISO_TIME NATURE LAT LON WMO_WIND WMO_PRES WMO_AGENCY TRACK_TYPE DIST2LAND LANDFALL IFLAG USA_AGENCY USA_ATCF_ID USA_LAT USA_LON USA_RECORD USA_STATUS USA_WIND USA_PRES USA_SSHS USA_R34_NE USA_R34_SE USA_R34_SW USA_R34_NW USA_R50_NE USA_R50_SE USA_R50_SW USA_R50_NW USA_R64_NE USA_R64_SE USA_R64_SW USA_R64_NW USA_POCI USA_ROCI USA_RMW USA_EYE TOKYO_LAT TOKYO_LON TOKYO_GRADE TOKYO_WIND TOKYO_PRES TOKYO_R50_DIR TOKYO_R50_LONG TOKYO_R50_SHORT TOKYO_R30_DIR TOKYO_R30_LONG TOKYO_R30_SHORT TOKYO_LAND CMA_LAT CMA_LON CMA_CAT CMA_WIND CMA_PRES HKO_LAT HKO_LON HKO_CAT HKO_WIND HKO_PRES NEWDELHI_LAT NEWDELHI_LON NEWDELHI_GRADE NEWDELHI_WIND NEWDELHI_PRES NEWDELHI_CI NEWDELHI_DP NEWDELHI_POCI REUNION_LAT REUNION_LON REUNION_TYPE REUNION_WIND REUNION_PRES REUNION_TNUM REUNION_CI REUNION_RMW REUNION_R34_NE REUNION_R34_SE REUNION_R34_SW REUNION_R34_NW REUNION_R50_NE REUNION_R50_SE REUNION_R50_SW REUNION_R50_NW REUNION_R64_NE REUNION_R64_SE REUNION_R64_SW REUNION_R64_NW BOM_LAT BOM_LON BOM_TYPE BOM_WIND BOM_PRES BOM_TNUM BOM_CI BOM_RMW BOM_R34_NE BOM_R34_SE BOM_R34_SW BOM_R34_NW BOM_R50_NE BOM_R50_SE BOM_R50_SW BOM_R50_NW BOM_R64_NE BOM_R64_SE BOM_R64_SW BOM_R64_NW BOM_ROCI BOM_POCI BOM_EYE BOM_POS_METHOD BOM_PRES_METHOD NADI_LAT NADI_LON NADI_CAT NADI_WIND NADI_PRES WELLINGTON_LAT WELLINGTON_LON WELLINGTON_WIND WELLINGTON_PRES DS824_LAT DS824_LON DS824_STAGE DS824_WIND DS824_PRES TD9636_LAT TD9636_LON TD9636_STAGE TD9636_WIND TD9636_PRES TD9635_LAT TD9635_LON TD9635_WIND TD9635_PRES TD9635_ROCI NEUMANN_LAT NEUMANN_LON NEUMANN_CLASS NEUMANN_WIND NEUMANN_PRES MLC_LAT MLC_LON MLC_CLASS MLC_WIND MLC_PRES USA_GUST BOM_GUST BOM_GUST_PER REUNION_GUST REUNION_GUST_PER USA_SEAHGT USA_SEARAD_NE USA_SEARAD_SE USA_SEARAD_SW USA_SEARAD_NW STORM_SPEED STORM_DIR
2022279S10087 2023 69 SI MM BALITA 2022-10-06 00:00:00 NR -9.70000 86.6000 PROVISIONAL 1629 1623 O_____________ tcvitals SI032022 -9.70000 86.6000 35 1001 0 75 150 120 100 1008 205 40 3 327
2022279S10087 2023 69 SI MM BALITA 2022-10-06 03:00:00 NR -9.59002 86.5250 PROVISIONAL 1633 1627 P_____________ SI032022 -9.59002 86.5250 35 999 0 135 113 1007 202 40 2 333
2022279S10087 2023 69 SI MM BALITA 2022-10-06 06:00:00 NR -9.50000 86.5000 PROVISIONAL 1627 1621 O_____________ tcvitals SI032022 -9.50000 86.5000 35 998 0 150 126 1007 200 40 1 5
2022279S10087 2023 69 SI MM BALITA 2022-10-06 09:00:00 NR -9.44246 86.5375 PROVISIONAL 1621 1621 P_____________ SI032022 -9.44246 86.5375 35 998 0 140 115 1007 205 40 1 0
2022279S10087 2023 69 SI MM BALITA 2022-10-06 12:00:00 NR -9.40000 86.5000 PROVISIONAL 1621 1621 O_____________ tcvitals SI032022 -9.40000 86.5000 35 999 0 130 105 1007 210 40 3 295
2022279S10087 2023 69 SI MM BALITA 2022-10-06 15:00:00 NR -9.30507 86.2374 PROVISIONAL 1643 1643 P_____________ SI032022 -9.30507 86.2374 35 999 0 130 102 1007 202 40 6 280
2022279S10087 2023 69 SI MM BALITA 2022-10-06 18:00:00 NR -9.30000 85.9000 PROVISIONAL 1672 1672 O_____________ tcvitals SI032022 -9.30000 85.9000 35 1000 0 130 100 1008 195 40 6 252
2022279S10087 2023 69 SI MM BALITA 2022-10-06 21:00:00 NR -9.50501 85.6126 PROVISIONAL 1711 1711 P_____________ SI032022 -9.50501 85.6126 35 1000 0 130 100 1008 202 40 7 225
2022279S10087 2023 69 SI MM BALITA 2022-10-07 00:00:00 NR -9.80000 85.4000 PROVISIONAL 1747 1747 O_____________ tcvitals SI032022 -9.80000 85.4000 35 1000 0 130 100 1008 210 40 7 206
2022279S10087 2023 69 SI MM BALITA 2022-10-07 03:00:00 NR -10.0875 85.3199 PROVISIONAL 1774 1774 P_____________ SI032022 -10.0875 85.3199 35 1000 0 128 100 1008 220 40 5 191
2022279S10087 2023 69 SI MM BALITA 2022-10-07 06:00:00 NR -10.3000 85.3000 PROVISIONAL 1786 1786 O_____________ tcvitals SI032022 -10.3000 85.3000 35 1001 0 65 126 100 1008 230 40 2 201
2022279S10087 2023 69 SI MM BALITA 2022-10-07 09:00:00 NR -10.2925 85.2425 PROVISIONAL 1795 1795 P_____________ SI032022 -10.2925 85.2425 35 1000 0 65 123 100 1007 235 40 1 270
2022279S10087 2023 69 SI MM BALITA 2022-10-07 12:00:00 NR -10.3000 85.2000 PROVISIONAL 1795 1795 O_____________ tcvitals SI032022 -10.3000 85.2000 35 1000 0 65 120 100 1007 240 40 3 187
2022279S10087 2023 69 SI MM BALITA 2022-10-07 15:00:00 NR -10.5700 85.2000 PROVISIONAL 1813 1813 P_____________ SI032022 -10.5700 85.2000 35 1000 0 82 105 75 1007 240 40 6 179
2022279S10087 2023 69 SI MM BALITA 2022-10-07 18:00:00 NR -10.9000 85.2000 PROVISIONAL 1831 1831 O_____________ tcvitals SI032022 -10.9000 85.2000 35 1001 0 65 100 90 50 1007 240 40 5 190
2022279S10087 2023 69 SI MM BALITA 2022-10-07 21:00:00 NR -11.0850 85.1052 PROVISIONAL 1852 1852 P_____________ SI032022 -11.0850 85.1052 35 1001 0 67 87 77 60 1007 265 40 4 193
2022279S10087 2023 69 SI MM BALITA 2022-10-08 00:00:00 NR -11.3000 85.1000 PROVISIONAL 1865 1857 O_____________ tcvitals SI032022 -11.3000 85.1000 35 1002 0 70 75 65 70 1008 290 40 6 155
2022279S10087 2023 69 SI MM BALITA 2022-10-08 03:00:00 NR -11.6551 85.3773 PROVISIONAL 1864 1855 P_____________ SI032022 -11.6551 85.3773 35 1003 0 72 75 45 47 1008 280 40 10 144
2022279S10087 2023 69 SI MM BALITA 2022-10-08 06:00:00 NR -12.1000 85.7000 PROVISIONAL 1865 1863 O_____________ tcvitals SI032022 -12.1000 85.7000 35 1004 0 75 75 25 25 1008 270 40 10 153
2022279S10087 2023 69 SI MM BALITA 2022-10-08 09:00:00 NR -12.5700 85.8451 PROVISIONAL 1891 1882 P_____________ SI032022 -12.5700 85.8451 37 1003 0 75 75 25 25 1008 270 40 10 169
2022279S10087 2023 69 SI MM BALITA 2022-10-08 12:00:00 NR -13.1000 85.9000 PROVISIONAL 1918 1918 O_____________ tcvitals SI032022 -13.1000 85.9000 39 1002 0 75 75 25 25 1008 270 40 11 179
2022279S10087 2023 69 SI MM BALITA 2022-10-08 15:00:00 NR -13.7074 85.8629 PROVISIONAL 1963 1963 P_____________ SI032022 -13.7074 85.8629 39 1002 0 72 62 1008 270 40 12 179
2022279S10087 2023 69 SI MM BALITA 2022-10-08 18:00:00 NR -14.3000 85.9000 PROVISIONAL 2008 2008 O_____________ tcvitals SI032022 -14.3000 85.9000 39 1002 0 70 50 1008 270 40 12 161
2022279S10087 2023 69 SI MM BALITA 2022-10-08 21:00:00 NR -14.8478 86.2569 PROVISIONAL 2017 2017 P_____________ SI032022 -14.8478 86.2569 39 1001 0 70 100 1008 277 40 11 143
2022279S10087 2023 69 SI MM BALITA 2022-10-09 00:00:00 NR -15.2000 86.6000 PROVISIONAL 2027 2027 O_____________ tcvitals SI032022 -15.2000 86.6000 39 1000 0 70 150 215 65 1009 285 40 4 139
2022279S10087 2023 69 SI MM BALITA 2022-10-09 03:00:00 NR -15.1799 86.5578 PROVISIONAL 2027 2026 P_____________ SI032022 -15.1799 86.5578 37 1000 0 72 165 215 62 1009 285 40 1 317
2022279S10087 2023 69 SI MM BALITA 2022-10-09 06:00:00 NR -15.1000 86.5000 PROVISIONAL 2026 2019 O_____________ tcvitals SI032022 -15.1000 86.5000 35 1001 0 75 180 215 60 1009 285 40 2 120
2022279S10087 2023 69 SI MM BALITA 2022-10-09 09:00:00 NR -15.2652 86.7095 PROVISIONAL 2028 2021 P_____________ SI032022 -15.2652 86.7095 35 1001 0 170 1009 275 40 8 131
2022279S10087 2023 69 SI MM BALITA 2022-10-09 12:00:00 NR -15.6000 87.1000 PROVISIONAL 2025 O_____________ tcvitals SI032022 -15.6000 87.1000 35 1002 0 126 1009 265 40 10 132

About IBTrACS Database

This database is a web-friendly format of International Best Track Archive for Climate Stewardship (IBTrACS), a global best track data archive curated by NOAA dating back to 1842.

Updated: 2022-11-16